Klaipeda, Lithuania

8:44 PM EEST on August 15, 2018 (GMT +0300)
Klaipeda City | | Change Station

Elev 288 ft 55.67 °N, 21.16 °E | Updated 1 minute ago

Partly Cloudy
Partly Cloudy
66.2 °F
Feels Like 66.2 °F
N
6.9
Wind Variable Wind from NW
Gusts 13.2 mph

Today
High -- | Low -- °F
--% Chance of Precip.
Yesterday
High -- | Low -- °F
Precip. -- in
Pressure 29.92 in
Visibility 6.2 miles
Clouds Scattered Clouds 1500 ft
Scattered Clouds 2000 ft
Mostly Cloudy 5200 ft
Dew Point 63 °F
Humidity 90%
Rainfall 0.00 in
Snow Depth Not available.
6:07 AM 9:11 PM
Waxing Crescent, 24% visible
METAR EVLA 151720Z AUTO 30006KT 260V320 9999 SCT015/// SCT020/// BKN052/// 20/17 Q1013
Pressure 29.92 in
Visibility 6.2 miles
Clouds Scattered Clouds 1500 ft
Scattered Clouds 2000 ft
Mostly Cloudy 5200 ft
Dew Point 63 °F
Humidity 90%
Rainfall 0.00 in
Snow Depth Not available.
6:07 AM 9:11 PM
Waxing Crescent, 24% visible
METAR EVLA 151720Z AUTO 30006KT 260V320 9999 SCT015/// SCT020/// BKN052/// 20/17 Q1013

Get Severe Weather Alerts

Thanks for signing up!

Be on the lookout for a verification email in your inbox.

You'll start receiving the daily forecast at 6 AM.

×

10-Day Weather Forecast

×

Almanac

Astronomy

Aug. 15, 2018 Rise Set
Actual Time
Civil Twilight
Nautical Twilight
Astronomical Twilight
Moon
Length of Visible Light
Length of Day
Tomorrow will be .
, % of the Moon is Illuminated

Today's Extremes

Country Highs Country Lows

Community

WunderPhotos

Category 6

Welcome to Category 6. This is the collective home for Weather Underground's featured writeups by Dr. Jeff Masters (right), Bob Henson (left), Chris Burt, and other regular contributors.

Nearby

Air Quality

  Air Quality AQ Index Pollutant
Not available.

Snow Depth

Station Depth Elevation

Earthquake Activity

City Distance Mag. Time & Date
Minimum magnitude displayed is 2.5.

Coastal Water Temperatures

Place Temperature

Stations

Nearby Weather Stations

Station Location Temp. Windchill Dew Point Humidity Wind Precip. Elev Updated Type